createdAt,value
2023-02-27T00:00:56.526Z,0.64
2023-02-27T00:04:21.698Z,0.59
2023-02-27T00:07:46.902Z,0.56
2023-02-27T00:11:12.091Z,0.55
2023-02-27T00:14:37.257Z,0.59
2023-02-27T00:18:02.432Z,0.62
2023-02-27T00:21:27.850Z,0.65
2023-02-27T00:24:52.748Z,0.62
2023-02-27T00:28:17.954Z,0.58
2023-02-27T00:31:43.170Z,0.58
2023-02-27T00:35:08.264Z,0.51
2023-02-27T00:38:33.421Z,0.44
2023-02-27T00:41:58.583Z,0.4
2023-02-27T00:45:23.762Z,0.36
2023-02-27T00:48:48.944Z,0.3
2023-02-27T00:52:14.080Z,0.26
2023-02-27T00:55:39.242Z,0.21
2023-02-27T00:59:04.402Z,0.18
2023-02-27T01:02:29.596Z,0.16
2023-02-27T01:05:54.731Z,0.12
2023-02-27T01:09:19.901Z,0.08
2023-02-27T01:12:45.052Z,0.06
2023-02-27T01:16:10.250Z,0.05
2023-02-27T01:19:35.407Z,0.04
2023-02-27T01:23:00.539Z,0.05
2023-02-27T01:26:25.734Z,0.04
2023-02-27T01:29:50.911Z,0.01
2023-02-27T01:33:16.076Z,-0.01
2023-02-27T01:36:41.284Z,-0.02
2023-02-27T01:40:06.437Z,-0.07
2023-02-27T01:43:31.582Z,-0.1
2023-02-27T01:46:56.730Z,-0.11
2023-02-27T01:50:21.912Z,-0.17
2023-02-27T01:53:47.087Z,-0.25
2023-02-27T01:57:12.229Z,-0.31
2023-02-27T02:00:37.408Z,-0.39
2023-02-27T02:04:02.562Z,-0.47
2023-02-27T02:07:27.707Z,-0.5
2023-02-27T02:10:52.904Z,-0.51
2023-02-27T02:14:18.045Z,-0.53
2023-02-27T02:17:43.231Z,-0.53
2023-02-27T02:21:08.398Z,-0.52
2023-02-27T02:24:33.563Z,-0.51
2023-02-27T02:27:58.735Z,-0.5
2023-02-27T02:31:23.974Z,-0.5
2023-02-27T02:34:49.036Z,-0.51
2023-02-27T02:38:14.215Z,-0.47
2023-02-27T02:41:39.380Z,-0.42
2023-02-27T02:45:04.592Z,-0.4
2023-02-27T02:48:29.718Z,-0.37
2023-02-27T02:51:54.880Z,-0.36
2023-02-27T02:55:20.025Z,-0.32
2023-02-27T02:58:45.180Z,-0.28
2023-02-27T03:02:10.375Z,-0.25
2023-02-27T03:05:35.536Z,-0.2
2023-02-27T03:09:00.676Z,-0.12
2023-02-27T03:12:25.839Z,-0.03
2023-02-27T03:15:51.058Z,0.02
2023-02-27T03:19:16.173Z,0.12
2023-02-27T03:22:41.364Z,0.16
2023-02-27T03:26:06.519Z,0.16
2023-02-27T03:29:31.679Z,0.21
2023-02-27T03:32:56.854Z,0.25
2023-02-27T03:36:22.032Z,0.26
2023-02-27T03:39:47.172Z,0.31
2023-02-27T03:43:12.348Z,0.31
2023-02-27T03:46:37.592Z,0.31
2023-02-27T03:50:02.672Z,0.31
2023-02-27T03:53:27.852Z,0.36
2023-02-27T03:56:52.987Z,0.4
2023-02-27T04:00:18.144Z,0.38
2023-02-27T04:03:43.306Z,0.4
2023-02-27T04:07:08.462Z,0.46
2023-02-27T04:10:33.648Z,0.5
2023-02-27T04:13:58.776Z,0.52
2023-02-27T04:17:23.947Z,0.58
2023-02-27T04:20:49.096Z,0.65
2023-02-27T04:24:14.244Z,0.64
2023-02-27T04:27:39.470Z,0.61
2023-02-27T04:31:04.688Z,0.57
2023-02-27T04:34:30.000Z,0.55
2023-02-27T04:37:55.479Z,0.5
2023-02-27T04:41:20.774Z,0.52
2023-02-27T04:44:46.109Z,0.52
2023-02-27T04:48:11.314Z,0.53
2023-02-27T04:51:36.464Z,0.47
2023-02-27T04:55:01.596Z,0.45
2023-02-27T04:58:26.742Z,0.47
2023-02-27T05:01:51.997Z,0.47
2023-02-27T05:05:17.095Z,0.45
2023-02-27T05:08:42.272Z,0.39
2023-02-27T05:12:07.637Z,0.33
2023-02-27T05:15:32.856Z,0.3
2023-02-27T05:18:58.066Z,0.26
2023-02-27T05:22:23.295Z,0.28
2023-02-27T05:25:48.534Z,0.3
2023-02-27T05:29:13.709Z,0.37
2023-02-27T05:32:39.026Z,0.4
2023-02-27T05:36:04.187Z,0.38
2023-02-27T05:39:29.376Z,0.37
2023-02-27T05:42:54.574Z,0.37
2023-02-27T05:46:19.844Z,0.36
2023-02-27T05:49:44.977Z,0.38
2023-02-27T05:53:10.232Z,0.43
2023-02-27T05:56:35.460Z,0.52
2023-02-27T06:00:00.708Z,0.57
2023-02-27T06:03:26.058Z,0.59
2023-02-27T06:06:51.169Z,0.59
2023-02-27T06:10:16.447Z,0.59
2023-02-27T06:13:42.248Z,0.63
2023-02-27T06:17:06.787Z,0.68
2023-02-27T06:20:31.969Z,0.8
2023-02-27T06:23:57.238Z,0.86
2023-02-27T06:27:22.470Z,0.89
2023-02-27T06:30:47.693Z,0.9
2023-02-27T06:34:12.920Z,0.91
2023-02-27T06:37:38.120Z,0.86
2023-02-27T06:41:03.331Z,0.75
2023-02-27T06:44:28.601Z,0.69
2023-02-27T06:47:53.998Z,0.67
2023-02-27T06:51:19.252Z,0.65
2023-02-27T06:54:44.458Z,0.63
2023-02-27T06:58:09.673Z,0.7
2023-02-27T07:01:35.018Z,0.73
2023-02-27T07:05:00.311Z,0.77
2023-02-27T07:08:25.542Z,0.79
2023-02-27T07:11:50.792Z,0.86
2023-02-27T07:15:16.066Z,0.92
2023-02-27T07:18:41.461Z,0.94
2023-02-27T07:22:06.608Z,0.91
2023-02-27T07:25:31.804Z,0.9
2023-02-27T07:28:57.031Z,0.85
2023-02-27T07:32:22.324Z,0.7
2023-02-27T07:35:47.500Z,0.57
2023-02-27T07:39:12.653Z,0.43
2023-02-27T07:42:37.871Z,0.38
2023-02-27T07:46:03.118Z,0.35
2023-02-27T07:49:28.318Z,0.43
2023-02-27T07:52:53.592Z,0.55
2023-02-27T07:56:18.779Z,0.67
2023-02-27T07:59:44.023Z,0.71
2023-02-27T08:03:09.242Z,0.79
2023-02-27T08:06:34.503Z,0.9
2023-02-27T08:09:59.770Z,0.93
2023-02-27T08:13:48.486Z,1.06
2023-02-27T08:16:50.226Z,1.22
2023-02-27T08:20:15.414Z,1.34
2023-02-27T08:23:42.575Z,1.44
2023-02-27T08:27:05.888Z,1.55
2023-02-27T08:30:31.050Z,1.66
2023-02-27T08:34:04.373Z,1.79
2023-02-27T08:37:21.439Z,1.85
2023-02-27T08:40:46.659Z,1.89
2023-02-27T08:44:11.920Z,1.95
2023-02-27T08:47:37.089Z,1.91
2023-02-27T08:51:02.279Z,1.93
2023-02-27T08:54:27.443Z,1.98
2023-02-27T08:57:52.641Z,1.97
2023-02-27T09:01:17.872Z,2.2
2023-02-27T09:04:42.972Z,2.4
2023-02-27T09:08:08.188Z,2.49
2023-02-27T09:11:33.374Z,2.56
2023-02-27T09:14:58.582Z,2.49
2023-02-27T09:18:23.841Z,2.34
2023-02-27T09:21:49.022Z,2.21
2023-02-27T09:25:14.202Z,2.07
2023-02-27T09:28:39.391Z,2
2023-02-27T09:32:04.681Z,2
2023-02-27T09:35:29.825Z,2.02
2023-02-27T09:38:54.885Z,1.9
2023-02-27T09:42:20.016Z,1.88
2023-02-27T09:45:45.236Z,1.86
2023-02-27T09:49:10.394Z,2.02
2023-02-27T09:52:35.612Z,2.07
2023-02-27T09:56:00.737Z,2.19
2023-02-27T09:59:25.918Z,2.23
2023-02-27T10:02:51.137Z,2.3
2023-02-27T10:06:16.267Z,2.27
2023-02-27T10:09:41.509Z,2.3
2023-02-27T10:13:06.670Z,2.37
2023-02-27T10:16:31.850Z,2.53
2023-02-27T10:19:57.030Z,2.64
2023-02-27T10:23:22.209Z,2.65
2023-02-27T10:26:47.409Z,2.8
2023-02-27T10:30:17.334Z,3.02
2023-02-27T10:33:37.692Z,3.14
2023-02-27T10:37:02.860Z,3.24
2023-02-27T10:40:27.997Z,3.33
2023-02-27T10:43:53.216Z,3.45
2023-02-27T10:47:18.335Z,3.47
2023-02-27T10:50:43.528Z,3.51
2023-02-27T10:54:08.686Z,3.42
2023-02-27T10:57:33.837Z,3.25
2023-02-27T11:00:59.061Z,3.23
2023-02-27T11:04:24.210Z,3.47
2023-02-27T11:07:49.366Z,3.7
2023-02-27T11:11:14.513Z,3.94
2023-02-27T11:14:39.676Z,4.22
2023-02-27T11:18:04.874Z,4.29
2023-02-27T11:21:31.180Z,4.26
2023-02-27T11:24:55.998Z,3.96
2023-02-27T11:28:21.192Z,3.88
2023-02-27T11:31:46.375Z,3.78
2023-02-27T11:35:11.560Z,3.89
2023-02-27T11:38:36.691Z,3.85
2023-02-27T11:42:01.886Z,3.69
2023-02-27T11:46:05.354Z,3.49
2023-02-27T11:48:52.227Z,3.35
2023-02-27T11:52:17.455Z,3.28
2023-02-27T11:55:42.611Z,3.27
2023-02-27T11:59:07.758Z,3.22
2023-02-27T12:02:33.047Z,3.05
2023-02-27T12:05:58.136Z,3
2023-02-27T12:09:23.279Z,2.99
2023-02-27T12:12:48.410Z,3
2023-02-27T12:16:13.863Z,2.89
2023-02-27T12:19:39.131Z,2.89
2023-02-27T12:23:04.620Z,2.86
2023-02-27T12:26:30.235Z,2.89
2023-02-27T12:29:55.024Z,3
2023-02-27T12:33:20.192Z,3.09
2023-02-27T12:36:45.420Z,3.16
2023-02-27T12:40:10.808Z,3.22
2023-02-27T12:43:36.116Z,3.23
2023-02-27T12:47:01.411Z,3.08
2023-02-27T12:50:26.786Z,3.05
2023-02-27T12:53:52.278Z,3
2023-02-27T12:57:17.593Z,3
2023-02-27T13:00:43.096Z,3.02
2023-02-27T13:04:08.461Z,3.08
2023-02-27T13:07:33.945Z,3.03
2023-02-27T13:10:59.429Z,2.94
2023-02-27T13:14:24.785Z,2.88
2023-02-27T13:17:50.125Z,2.89
2023-02-27T13:21:15.495Z,2.92
2023-02-27T13:24:40.833Z,2.98
2023-02-27T13:28:06.168Z,3.14
2023-02-27T13:31:31.660Z,3.27
2023-02-27T13:34:56.884Z,3.39
2023-02-27T13:38:22.228Z,3.53
2023-02-27T13:41:47.593Z,3.51
2023-02-27T13:45:12.908Z,3.38
2023-02-27T13:48:38.260Z,3.18
2023-02-27T13:52:03.626Z,3.08
2023-02-27T13:55:28.889Z,3.16
2023-02-27T13:58:55.260Z,3.16
2023-02-27T14:02:19.684Z,3.09
2023-02-27T14:05:45.031Z,2.99
2023-02-27T14:09:15.007Z,2.91
2023-02-27T14:12:44.290Z,2.96
2023-02-27T14:16:01.157Z,2.99
2023-02-27T14:19:26.397Z,2.97
2023-02-27T14:22:51.719Z,3.15
2023-02-27T14:26:17.087Z,3.32
2023-02-27T14:29:42.393Z,3.43
2023-02-27T15:03:15.033Z,0.28
2023-02-27T15:06:41.103Z,1.24
2023-02-27T15:10:06.896Z,1.58
2023-02-27T15:13:32.334Z,1.85
2023-02-27T15:16:57.711Z,1.99
2023-02-27T15:20:23.046Z,2.03
2023-02-27T15:23:48.425Z,2.06
2023-02-27T15:27:14.300Z,2.12
2023-02-27T15:30:39.788Z,2.09
2023-02-27T15:34:05.127Z,2
2023-02-27T15:37:30.581Z,1.92
2023-02-27T15:40:55.904Z,1.82
2023-02-27T15:44:21.291Z,1.77
2023-02-27T15:47:46.686Z,1.72
2023-02-27T15:51:12.026Z,1.68
2023-02-27T15:54:37.376Z,1.65
2023-02-27T15:58:03.854Z,1.61
2023-02-27T16:01:28.318Z,1.65
2023-02-27T16:04:53.372Z,1.72
2023-02-27T16:08:18.693Z,1.78
2023-02-27T16:11:44.046Z,1.84
2023-02-27T16:15:09.350Z,1.9
2023-02-27T16:18:35.605Z,1.92
2023-02-27T16:22:00.914Z,1.92
2023-02-27T16:25:26.245Z,1.93
2023-02-27T16:28:51.649Z,1.88
2023-02-27T16:32:17.042Z,1.85
2023-02-27T16:35:42.211Z,1.87
2023-02-27T16:39:07.501Z,1.82
2023-02-27T16:42:32.793Z,1.81
2023-02-27T16:45:58.195Z,1.82
2023-02-27T16:49:23.468Z,1.8
2023-02-27T16:52:48.804Z,1.75
2023-02-27T16:56:14.184Z,1.72
2023-02-27T16:59:39.528Z,1.71
2023-02-27T17:03:04.920Z,1.74
2023-02-27T17:06:30.572Z,1.8
2023-02-27T17:09:55.548Z,1.9
2023-02-27T17:13:20.890Z,1.91
2023-02-27T17:16:46.206Z,1.88
2023-02-27T17:20:11.550Z,1.85
2023-02-27T17:23:36.852Z,1.85
2023-02-27T17:27:02.149Z,1.87
2023-02-27T17:30:27.517Z,1.88
2023-02-27T17:33:52.852Z,1.92
2023-02-27T17:37:18.220Z,1.93
2023-02-27T17:40:43.500Z,1.92
2023-02-27T17:44:08.806Z,1.94
2023-02-27T17:47:34.109Z,1.96
2023-02-27T17:50:59.526Z,2.01
2023-02-27T17:54:24.935Z,2.02
2023-02-27T17:57:50.200Z,2.08
2023-02-27T18:01:15.545Z,2.09
2023-02-27T18:04:40.768Z,2.09
2023-02-27T18:08:06.121Z,2.06
2023-02-27T18:11:31.500Z,2.01
2023-02-27T18:14:56.974Z,2.02
2023-02-27T18:18:22.271Z,2.02
2023-02-27T18:21:47.605Z,1.99
2023-02-27T18:25:12.909Z,1.95
2023-02-27T18:28:38.297Z,1.96
2023-02-27T18:32:03.705Z,1.92
2023-02-27T18:35:28.970Z,1.85
2023-02-27T18:38:54.312Z,1.79
2023-02-27T18:42:19.645Z,1.8
2023-02-27T18:45:45.007Z,1.78
2023-02-27T18:49:10.320Z,1.76
2023-02-27T18:52:37.213Z,1.71
2023-02-27T18:56:01.008Z,1.65
2023-02-27T18:59:26.335Z,1.57
2023-02-27T19:02:51.707Z,1.49
2023-02-27T19:06:17.787Z,1.42
2023-02-27T19:09:43.106Z,1.4
2023-02-27T19:13:08.403Z,1.34
2023-02-27T19:16:33.786Z,1.24
2023-02-27T19:19:59.128Z,1.21
2023-02-27T19:23:24.435Z,1.18
2023-02-27T19:26:50.830Z,1.17
2023-02-27T19:30:15.184Z,1.11
2023-02-27T19:33:40.470Z,1.06
2023-02-27T19:37:05.833Z,1.03
2023-02-27T19:40:31.328Z,1.01
2023-02-27T19:43:56.599Z,0.99
2023-02-27T19:47:21.920Z,0.95
2023-02-27T19:50:47.219Z,0.87
2023-02-27T19:54:12.523Z,0.8
2023-02-27T19:57:37.850Z,0.75
2023-02-27T20:01:03.180Z,0.73
2023-02-27T20:04:28.548Z,0.74
2023-02-27T20:07:53.803Z,0.75
2023-02-27T20:11:19.135Z,0.73
2023-02-27T20:14:44.451Z,0.67
2023-02-27T20:18:09.751Z,0.61
2023-02-27T20:21:35.156Z,0.53
2023-02-27T20:25:00.512Z,0.49
2023-02-27T20:28:25.852Z,0.52
2023-02-27T20:31:51.267Z,0.56
2023-02-27T20:35:16.505Z,0.61
2023-02-27T20:38:41.872Z,0.71
2023-02-27T20:42:07.128Z,0.85
2023-02-27T20:45:32.401Z,1
2023-02-27T20:48:57.493Z,1.07
2023-02-27T20:52:22.684Z,1.12
2023-02-27T20:55:47.827Z,1.15
2023-02-27T20:59:12.979Z,1.12
2023-02-27T21:02:38.174Z,1.04
2023-02-27T21:06:03.341Z,0.97
2023-02-27T21:09:28.474Z,0.91
2023-02-27T21:12:53.633Z,0.82
2023-02-27T21:16:18.922Z,0.72
2023-02-27T21:19:43.967Z,0.62
2023-02-27T21:23:09.105Z,0.56
2023-02-27T21:26:35.275Z,0.53
2023-02-27T21:29:59.434Z,0.47
2023-02-27T21:33:24.603Z,0.39
2023-02-27T21:36:49.778Z,0.36
2023-02-27T21:40:14.913Z,0.36
2023-02-27T21:43:40.076Z,0.36
2023-02-27T21:47:05.236Z,0.4
2023-02-27T21:50:30.384Z,0.46
2023-02-27T21:53:55.572Z,0.48
2023-02-27T21:57:20.704Z,0.49
2023-02-27T22:00:45.870Z,0.46
2023-02-27T22:04:10.988Z,0.4
2023-02-27T22:07:36.168Z,0.32
2023-02-27T22:11:01.339Z,0.29
2023-02-27T22:14:26.476Z,0.31
2023-02-27T22:17:51.651Z,0.28
2023-02-27T22:21:16.851Z,0.19
2023-02-27T22:24:41.998Z,0.13
2023-02-27T22:28:07.175Z,0.07
2023-02-27T22:31:32.736Z,0.04
2023-02-27T22:34:57.492Z,-0.03
2023-02-27T22:38:22.759Z,-0.05
2023-02-27T22:41:47.818Z,-0.04
2023-02-27T22:45:12.988Z,-0.01
2023-02-27T22:48:38.150Z,0.01
2023-02-27T22:52:03.313Z,0.04
2023-02-27T22:55:28.465Z,0.06
2023-02-27T22:58:53.633Z,0.06
2023-02-27T23:02:18.838Z,0.09
2023-02-27T23:05:43.953Z,0.17
2023-02-27T23:09:09.120Z,0.27
2023-02-27T23:12:34.290Z,0.35
2023-02-27T23:15:59.483Z,0.42
2023-02-27T23:19:24.616Z,0.47
2023-02-27T23:22:49.763Z,0.5
2023-02-27T23:26:14.910Z,0.51
2023-02-27T23:29:40.067Z,0.53
2023-02-27T23:33:05.231Z,0.57
2023-02-27T23:36:30.412Z,0.6
2023-02-27T23:39:55.588Z,0.63
2023-02-27T23:43:20.750Z,0.66
2023-02-27T23:46:45.956Z,0.68
2023-02-27T23:50:11.126Z,0.6
2023-02-27T23:53:36.328Z,0.51
2023-02-27T23:57:01.482Z,0.48
